createdAt,value
2022-11-07T00:02:14.367Z,58.42
2022-11-07T00:04:42.664Z,58.10
2022-11-07T00:07:29.154Z,61.15
2022-11-07T00:09:57.159Z,59.33
2022-11-07T00:12:25.141Z,58.40
2022-11-07T00:14:52.961Z,60.58
2022-11-07T00:17:20.534Z,58.35
2022-11-07T00:19:49.335Z,54.47
2022-11-07T00:22:16.795Z,58.15
2022-11-07T00:24:44.606Z,57.58
2022-11-07T00:27:12.212Z,56.88
2022-11-07T00:29:41.041Z,53.25
2022-11-07T00:32:08.506Z,53.28
2022-11-07T00:34:36.371Z,59.30
2022-11-07T00:37:03.935Z,53.17
2022-11-07T00:39:31.720Z,56.55
2022-11-07T00:41:59.193Z,49.95
2022-11-07T00:44:27.061Z,55.45
2022-11-07T00:46:54.556Z,54.88
2022-11-07T00:49:40.669Z,57.40
2022-11-07T00:52:08.195Z,52.33
2022-11-07T00:54:35.954Z,61.10
2022-11-07T00:57:03.401Z,55.58
2022-11-07T00:59:31.188Z,54.10
2022-11-07T01:01:58.852Z,55.55
2022-11-07T01:04:45.556Z,51.97
2022-11-07T01:07:13.027Z,52.20
2022-11-07T01:09:40.871Z,52.67
2022-11-07T01:12:08.388Z,51.92
2022-11-07T01:14:36.402Z,53.95
2022-11-07T01:17:03.878Z,57.17
2022-11-07T01:19:31.792Z,55.70
2022-11-07T01:21:59.292Z,61.40
2022-11-07T01:24:27.139Z,60.35
2022-11-07T01:26:54.600Z,57.17
2022-11-07T01:29:22.469Z,61.38
2022-11-07T01:31:49.960Z,61.50
2022-11-07T01:34:18.478Z,55.55
2022-11-07T01:36:46.643Z,56.08
2022-11-07T01:39:14.318Z,44.70
2022-11-07T01:41:42.552Z,47.47
2022-11-07T01:44:09.922Z,53.00
2022-11-07T01:46:44.239Z,55.70
2022-11-07T01:49:31.744Z,59.70
2022-11-07T01:52:21.293Z,60.42
2022-11-07T01:55:23.674Z,69.32
2022-11-07T01:58:01.727Z,68.30
2022-11-07T02:00:30.925Z,59.03
2022-11-07T02:03:09.778Z,52.85
2022-11-07T02:06:09.353Z,52.25
2022-11-07T02:08:40.318Z,48.15
2022-11-07T02:11:10.163Z,48.25
2022-11-07T02:13:37.868Z,49.78
2022-11-07T02:16:06.417Z,52.70
2022-11-07T02:18:37.189Z,50.47
2022-11-07T02:21:22.329Z,48.53
2022-11-07T02:24:01.498Z,60.60
2022-11-07T02:26:30.312Z,64.55
2022-11-07T02:28:59.023Z,58.97
2022-11-07T02:31:26.873Z,56.83
2022-11-07T02:33:54.282Z,58.78
2022-11-07T02:36:25.477Z,60.97
2022-11-07T02:38:58.877Z,58.00
2022-11-07T02:41:33.121Z,62.45
2022-11-07T02:44:07.525Z,60.78
2022-11-07T02:46:36.102Z,64.88
2022-11-07T02:49:03.847Z,63.83
2022-11-07T02:51:32.095Z,65.50
2022-11-07T02:53:59.692Z,67.25
2022-11-07T02:56:27.544Z,69.05
2022-11-07T02:58:55.716Z,67.22
2022-11-07T03:01:25.322Z,60.83
2022-11-07T03:03:53.129Z,68.15
2022-11-07T03:06:25.605Z,61.03
2022-11-07T03:08:53.460Z,59.67
2022-11-07T03:11:21.379Z,60.70
2022-11-07T03:13:50.604Z,60.83
2022-11-07T03:16:19.639Z,70.07
2022-11-07T03:18:47.118Z,60.38
2022-11-07T03:21:15.144Z,68.72
2022-11-07T03:23:42.770Z,64.78
2022-11-07T03:26:10.547Z,67.07
2022-11-07T03:28:38.061Z,71.55
2022-11-07T03:31:06.164Z,66.72
2022-11-07T03:33:33.709Z,58.92
2022-11-07T03:36:01.516Z,61.13
2022-11-07T03:38:29.054Z,62.00
2022-11-07T03:40:56.944Z,62.92
2022-11-07T03:43:24.468Z,65.60
2022-11-07T03:45:52.245Z,59.47
2022-11-07T03:48:19.739Z,51.53
2022-11-07T03:50:47.468Z,60.70
2022-11-07T03:53:17.292Z,56.40
2022-11-07T03:55:48.587Z,59.35
2022-11-07T03:58:16.091Z,56.25
2022-11-07T04:00:43.848Z,60.92
2022-11-07T04:03:11.362Z,53.72
2022-11-07T04:05:39.252Z,60.53
2022-11-07T04:08:07.058Z,59.72
2022-11-07T04:10:35.190Z,63.97
2022-11-07T04:13:21.595Z,62.50
2022-11-07T04:16:09.699Z,59.65
2022-11-07T04:18:40.217Z,62.00
2022-11-07T04:21:07.948Z,59.17
2022-11-07T04:23:35.417Z,65.90
2022-11-07T04:26:21.646Z,59.70
2022-11-07T04:28:49.120Z,60.60
2022-11-07T04:31:16.927Z,66.07
2022-11-07T04:33:44.620Z,63.05
2022-11-07T04:36:17.248Z,64.78
2022-11-07T04:38:45.341Z,70.57
2022-11-07T04:41:25.245Z,64.90
2022-11-07T04:43:52.780Z,83.97
2022-11-07T04:46:21.622Z,68.72
2022-11-07T04:48:49.095Z,80.60
2022-11-07T04:51:21.839Z,75.05
2022-11-07T04:53:49.314Z,77.90
2022-11-07T04:56:17.471Z,76.15
2022-11-07T04:58:45.039Z,69.72
2022-11-07T05:01:13.023Z,90.43
2022-11-07T05:03:42.247Z,78.35
2022-11-07T05:06:14.165Z,71.28
2022-11-07T05:08:41.649Z,80.55
2022-11-07T05:11:09.799Z,79.45
2022-11-07T05:13:37.271Z,80.75
2022-11-07T05:16:05.612Z,70.13
2022-11-07T05:18:33.056Z,70.70
2022-11-07T05:21:00.955Z,72.57
2022-11-07T05:23:28.659Z,74.30
2022-11-07T05:25:56.925Z,73.65
2022-11-07T05:28:36.846Z,73.63
2022-11-07T05:31:06.360Z,75.97
2022-11-07T05:33:34.100Z,71.68
2022-11-07T05:36:27.949Z,72.13
2022-11-07T05:38:55.392Z,75.75
2022-11-07T05:41:23.240Z,75.38
2022-11-07T05:43:50.723Z,88.30
2022-11-07T05:46:21.145Z,79.45
2022-11-07T05:48:50.751Z,74.93
2022-11-07T05:51:18.529Z,64.65
2022-11-07T05:53:46.793Z,67.10
2022-11-07T05:56:14.523Z,74.30
2022-11-07T05:58:41.953Z,68.78
2022-11-07T06:01:09.751Z,76.07
2022-11-07T06:03:37.204Z,67.78
2022-11-07T06:06:05.718Z,69.18
2022-11-07T06:08:33.194Z,69.10
2022-11-07T06:11:05.932Z,80.57
2022-11-07T06:13:33.478Z,77.55
2022-11-07T06:16:01.285Z,72.20
2022-11-07T06:18:28.806Z,68.57
2022-11-07T06:20:56.717Z,80.43
2022-11-07T06:23:24.220Z,76.90
2022-11-07T06:25:52.064Z,79.55
2022-11-07T06:28:23.621Z,75.57
2022-11-07T06:30:51.650Z,80.38
2022-11-07T06:33:20.210Z,75.85
2022-11-07T06:35:48.373Z,70.68
2022-11-07T06:38:16.036Z,79.22
2022-11-07T06:40:44.592Z,81.55
2022-11-07T06:43:20.294Z,80.55
2022-11-07T06:45:48.571Z,73.30
2022-11-07T06:48:16.224Z,68.25
2022-11-07T06:50:44.154Z,72.88
2022-11-07T06:53:14.473Z,75.43
2022-11-07T06:55:42.938Z,72.15
2022-11-07T06:58:10.542Z,72.25
2022-11-07T07:00:38.531Z,81.43
2022-11-07T07:03:06.310Z,80.10
2022-11-07T07:05:35.462Z,71.82
2022-11-07T07:08:06.029Z,78.43
2022-11-07T07:10:43.780Z,79.35
2022-11-07T07:13:12.318Z,85.53
2022-11-07T07:15:50.447Z,85.63
2022-11-07T07:18:20.136Z,86.67
2022-11-07T07:20:49.791Z,85.80
2022-11-07T07:25:47.652Z,94.28
2022-11-07T07:28:15.313Z,82.95
2022-11-07T07:30:47.214Z,86.90
2022-11-07T07:33:18.465Z,82.80
2022-11-07T07:35:47.091Z,80.93
2022-11-07T07:38:14.590Z,83.95
2022-11-07T07:40:42.373Z,82.57
2022-11-07T07:43:09.770Z,88.97
2022-11-07T07:45:37.493Z,92.78
2022-11-07T07:48:05.670Z,84.57
2022-11-07T07:50:33.425Z,84.97
2022-11-07T07:53:04.804Z,90.20
2022-11-07T07:55:36.317Z,87.32
2022-11-07T07:58:03.806Z,96.95
2022-11-07T08:00:31.541Z,85.20
2022-11-07T08:03:10.384Z,84.18
2022-11-07T08:05:39.628Z,89.95
2022-11-07T08:08:08.342Z,84.38
2022-11-07T08:10:43.534Z,89.18
2022-11-07T08:13:11.157Z,82.80
2022-11-07T08:15:39.004Z,87.20
2022-11-07T08:18:06.745Z,94.78
2022-11-07T08:20:34.550Z,85.10
2022-11-07T08:23:14.553Z,86.65
2022-11-07T08:26:04.942Z,87.45
2022-11-07T08:28:35.697Z,81.30
2022-11-07T08:31:08.107Z,79.93
2022-11-07T08:33:36.188Z,78.45
2022-11-07T08:36:06.360Z,79.93
2022-11-07T08:38:36.252Z,76.28
2022-11-07T08:41:06.117Z,80.07
2022-11-07T08:43:33.534Z,69.43
2022-11-07T08:46:01.383Z,84.72
2022-11-07T08:48:28.776Z,81.57
2022-11-07T08:50:58.366Z,81.35
2022-11-07T08:53:27.182Z,71.03
2022-11-07T08:56:08.291Z,75.88
2022-11-07T08:58:37.049Z,80.00
2022-11-07T09:01:09.794Z,81.68
2022-11-07T09:03:45.938Z,75.65
2022-11-07T09:06:17.962Z,73.10
2022-11-07T09:08:45.804Z,71.80
2022-11-07T09:11:15.852Z,76.35
2022-11-07T09:13:43.638Z,67.47
2022-11-07T09:16:11.549Z,78.18
2022-11-07T09:18:39.303Z,76.13
2022-11-07T09:21:07.217Z,77.32
2022-11-07T09:23:34.671Z,78.88
2022-11-07T09:26:02.939Z,81.05
2022-11-07T09:28:30.786Z,73.20
2022-11-07T09:31:00.485Z,82.90
2022-11-07T09:36:03.437Z,74.00
2022-11-07T09:38:31.740Z,77.28
2022-11-07T09:41:25.436Z,84.70
2022-11-07T09:44:17.448Z,72.78
2022-11-07T09:47:17.906Z,86.82
2022-11-07T09:49:53.146Z,92.13
2022-11-07T09:52:42.367Z,89.18
2022-11-07T09:55:30.090Z,82.50
2022-11-07T09:58:07.191Z,89.10
2022-11-07T10:00:34.752Z,99.38
2022-11-07T10:03:03.438Z,105.68
2022-11-07T10:05:42.652Z,111.00
2022-11-07T10:08:39.094Z,116.07
2022-11-07T10:11:34.557Z,120.07
2022-11-07T10:14:53.488Z,122.93
2022-11-07T10:17:42.992Z,120.95
2022-11-07T10:20:26.238Z,136.52
2022-11-07T10:22:59.379Z,132.07
2022-11-07T10:25:48.746Z,125.35
2022-11-07T10:28:19.994Z,129.80
2022-11-07T10:30:53.133Z,133.77
2022-11-07T10:33:53.290Z,147.98
2022-11-07T10:36:26.232Z,150.32
2022-11-07T10:38:54.780Z,143.95
2022-11-07T10:41:29.238Z,144.32
2022-11-07T10:44:12.182Z,139.90
2022-11-07T10:46:50.143Z,151.95
2022-11-07T10:49:20.703Z,141.45
2022-11-07T10:51:49.294Z,148.18
2022-11-07T10:54:31.518Z,148.88
2022-11-07T10:57:19.536Z,161.90
2022-11-07T10:59:59.700Z,152.65
2022-11-07T11:02:59.857Z,148.07
2022-11-07T11:05:46.460Z,151.98
2022-11-07T11:08:21.725Z,143.73
2022-11-07T11:10:50.489Z,147.00
2022-11-07T11:13:34.539Z,147.90
2022-11-07T11:16:27.304Z,156.50
2022-11-07T11:19:01.632Z,155.95
2022-11-07T11:21:48.012Z,151.75
2022-11-07T11:24:37.383Z,151.30
2022-11-07T11:27:18.342Z,149.00
2022-11-07T11:29:52.057Z,152.27
2022-11-07T11:32:44.430Z,139.82
2022-11-07T11:35:29.892Z,150.15
2022-11-07T11:38:24.344Z,148.73
2022-11-07T11:41:23.584Z,152.73
2022-11-07T11:44:23.359Z,148.35
2022-11-07T11:47:14.309Z,149.20
2022-11-07T11:50:00.252Z,148.65
2022-11-07T11:52:34.532Z,146.65
2022-11-07T11:55:03.129Z,139.25
2022-11-07T11:57:59.919Z,138.30
2022-11-07T12:00:27.663Z,143.65
2022-11-07T12:02:55.466Z,142.20
2022-11-07T12:05:53.879Z,131.27
2022-11-07T12:09:00.755Z,150.60
2022-11-07T12:11:52.373Z,140.63
2022-11-07T12:14:57.430Z,155.27
2022-11-07T12:17:42.330Z,137.75
2022-11-07T12:20:51.401Z,142.43
2022-11-07T12:23:21.374Z,131.63
2022-11-07T12:26:22.017Z,144.20
2022-11-07T12:29:41.327Z,141.43
2022-11-07T12:32:55.803Z,142.02
2022-11-07T12:35:59.584Z,155.00
2022-11-07T12:39:12.174Z,156.18
2022-11-07T12:42:02.903Z,147.93
2022-11-07T12:44:44.564Z,158.02
2022-11-07T12:47:31.770Z,146.65
2022-11-07T12:50:21.025Z,162.50
2022-11-07T12:53:30.004Z,137.55
2022-11-07T12:58:51.524Z,144.30
2022-11-07T13:01:29.086Z,137.88
2022-11-07T13:04:27.066Z,137.60
2022-11-07T13:07:20.978Z,123.93
2022-11-07T13:10:14.291Z,125.07
2022-11-07T13:13:20.165Z,133.60
2022-11-07T13:16:14.118Z,120.85
2022-11-07T13:18:43.271Z,124.13
2022-11-07T13:21:10.899Z,115.78
2022-11-07T13:23:39.017Z,114.97
2022-11-07T13:26:44.675Z,113.60
2022-11-07T13:29:01.174Z,106.18
2022-11-07T13:31:38.827Z,111.70
2022-11-07T13:34:26.651Z,108.35
2022-11-07T13:37:02.033Z,103.30
2022-11-07T13:39:31.565Z,111.00
2022-11-07T13:42:00.695Z,109.40
2022-11-07T13:44:38.228Z,98.50
2022-11-07T13:47:16.026Z,111.10
2022-11-07T13:49:47.677Z,112.53
2022-11-07T13:53:09.298Z,117.03
2022-11-07T13:55:57.472Z,114.75
2022-11-07T13:58:28.589Z,113.85
2022-11-07T14:01:10.331Z,105.50
2022-11-07T14:08:45.192Z,102.65
2022-11-07T14:11:23.456Z,110.53
2022-11-07T14:13:54.192Z,95.95
2022-11-07T14:16:30.578Z,102.95
2022-11-07T14:19:07.021Z,92.25
2022-11-07T14:21:37.596Z,99.95
2022-11-07T14:24:32.653Z,106.88
2022-11-07T14:27:14.083Z,92.57
2022-11-07T14:30:00.077Z,84.63
2022-11-07T14:32:36.779Z,78.85
2022-11-07T14:35:08.958Z,87.80
2022-11-07T14:37:36.782Z,82.30
2022-11-07T14:40:06.427Z,74.95
2022-11-07T14:42:34.281Z,81.40
2022-11-07T14:45:04.294Z,76.65
2022-11-07T14:47:34.732Z,92.40
2022-11-07T14:50:04.577Z,81.72
2022-11-07T14:53:02.086Z,87.93
2022-11-07T14:55:33.561Z,93.93
2022-11-07T14:58:04.002Z,98.50
2022-11-07T15:00:33.551Z,99.50
2022-11-07T15:03:02.123Z,93.53
2022-11-07T15:05:37.065Z,92.22
2022-11-07T15:08:05.470Z,90.30
2022-11-07T15:15:33.697Z,77.70
2022-11-07T15:18:05.905Z,71.15
2022-11-07T15:20:38.369Z,69.70
2022-11-07T15:23:12.173Z,65.80
2022-11-07T15:25:51.211Z,68.22
2022-11-07T15:30:50.480Z,51.92
2022-11-07T15:33:19.205Z,50.42
2022-11-07T15:35:54.842Z,54.85
2022-11-07T15:38:29.238Z,59.78
2022-11-07T15:40:56.800Z,57.88
2022-11-07T15:43:24.619Z,56.67
2022-11-07T15:45:53.362Z,52.50
2022-11-07T15:48:36.892Z,54.63
2022-11-07T15:51:09.517Z,59.80
2022-11-07T15:53:37.477Z,58.92
2022-11-07T15:56:15.715Z,57.72
2022-11-07T15:58:46.192Z,63.50
2022-11-07T16:01:13.875Z,61.45
2022-11-07T16:03:45.582Z,56.97
2022-11-07T16:06:31.630Z,56.00
2022-11-07T16:08:59.824Z,48.63
2022-11-07T16:11:27.472Z,53.28
2022-11-07T16:14:35.101Z,55.95
2022-11-07T16:16:49.994Z,50.80
2022-11-07T16:19:30.432Z,49.28
2022-11-07T16:21:57.918Z,61.45
2022-11-07T16:24:29.242Z,46.08
2022-11-07T16:26:57.128Z,44.08
2022-11-07T16:29:25.137Z,37.88
2022-11-07T16:31:52.603Z,35.88
2022-11-07T16:34:20.371Z,29.38
2022-11-07T16:36:50.530Z,29.10
2022-11-07T16:39:21.914Z,28.73
2022-11-07T16:41:50.548Z,26.52
2022-11-07T16:44:26.010Z,32.53
2022-11-07T16:46:56.302Z,40.45
2022-11-07T16:49:32.584Z,29.48
2022-11-07T16:52:00.293Z,30.15
2022-11-07T16:54:28.133Z,30.27
2022-11-07T16:56:56.673Z,33.22
2022-11-07T16:59:24.970Z,32.38
2022-11-07T17:01:53.617Z,30.38
2022-11-07T17:04:21.596Z,34.40
2022-11-07T17:06:49.148Z,34.53
2022-11-07T17:09:20.392Z,28.55
2022-11-07T17:11:49.060Z,37.08
2022-11-07T17:14:16.958Z,37.45
2022-11-07T17:16:48.445Z,37.70
2022-11-07T17:19:16.306Z,36.35
2022-11-07T17:21:48.461Z,49.72
2022-11-07T17:24:16.862Z,43.65
2022-11-07T17:26:44.458Z,45.05
2022-11-07T17:29:17.184Z,47.55
2022-11-07T17:31:44.791Z,42.30
2022-11-07T17:34:12.731Z,43.58
2022-11-07T17:36:47.261Z,54.15
2022-11-07T17:39:20.629Z,38.13
2022-11-07T17:41:51.712Z,48.80
2022-11-07T17:44:20.104Z,39.22
2022-11-07T17:46:51.828Z,43.55
2022-11-07T17:49:22.040Z,42.75
2022-11-07T17:51:49.620Z,40.80
2022-11-07T17:54:17.451Z,40.67
2022-11-07T17:56:45.008Z,39.10
2022-11-07T17:59:17.881Z,46.92
2022-11-07T18:01:46.059Z,38.47
2022-11-07T18:04:14.414Z,39.67
2022-11-07T18:06:43.398Z,36.60
2022-11-07T18:09:15.971Z,40.05
2022-11-07T18:11:44.150Z,39.55
2022-11-07T18:14:13.774Z,41.28
2022-11-07T18:16:41.405Z,38.30
2022-11-07T18:19:10.573Z,44.13
2022-11-07T18:21:39.002Z,36.38
2022-11-07T18:24:07.263Z,43.37
2022-11-07T18:26:38.442Z,46.35
2022-11-07T18:29:13.232Z,39.17
2022-11-07T18:31:41.487Z,43.40
2022-11-07T18:34:12.659Z,45.07
2022-11-07T18:36:43.243Z,32.90
2022-11-07T18:39:21.670Z,32.60
2022-11-07T18:41:51.788Z,33.05
2022-11-07T18:44:19.959Z,30.40
2022-11-07T18:46:48.038Z,28.17
2022-11-07T18:49:19.599Z,31.52
2022-11-07T18:51:51.891Z,25.23
2022-11-07T18:54:22.091Z,29.92
2022-11-07T18:56:49.659Z,28.67
2022-11-07T18:59:17.623Z,32.65
2022-11-07T19:01:45.304Z,37.42
2022-11-07T19:04:13.396Z,35.03
2022-11-07T19:06:56.855Z,33.08
2022-11-07T19:09:31.719Z,30.90
2022-11-07T19:12:00.887Z,29.63
2022-11-07T19:16:58.822Z,29.35
2022-11-07T19:19:26.857Z,40.42
2022-11-07T19:21:54.386Z,35.38
2022-11-07T19:24:22.209Z,30.63
2022-11-07T19:26:56.371Z,28.50
2022-11-07T19:29:24.292Z,28.20
2022-11-07T19:31:51.943Z,29.50
2022-11-07T19:34:22.948Z,30.75
2022-11-07T19:36:50.435Z,28.90
2022-11-07T19:39:18.360Z,28.10
2022-11-07T19:41:45.870Z,30.75
2022-11-07T19:44:13.892Z,30.02
2022-11-07T19:46:41.499Z,28.52
2022-11-07T19:49:12.528Z,29.55
2022-11-07T19:51:44.288Z,27.65
2022-11-07T19:54:12.119Z,29.67
2022-11-07T19:56:39.907Z,27.00
2022-11-07T19:59:09.597Z,25.73
2022-11-07T20:01:39.393Z,23.10
2022-11-07T20:04:08.920Z,23.90
2022-11-07T20:06:38.607Z,25.08
2022-11-07T20:09:09.354Z,26.23
2022-11-07T20:11:36.970Z,22.50
2022-11-07T20:14:06.047Z,26.48
2022-11-07T20:16:36.888Z,22.08
2022-11-07T20:19:05.593Z,23.65
2022-11-07T20:21:34.510Z,23.10
2022-11-07T20:26:31.855Z,21.65
2022-11-07T20:29:03.852Z,19.92
2022-11-07T20:31:36.739Z,23.88
2022-11-07T20:34:07.041Z,26.15
2022-11-07T20:36:35.062Z,28.33
2022-11-07T20:39:05.001Z,20.15
2022-11-07T20:41:33.028Z,19.50
2022-11-07T20:44:06.543Z,18.70
2022-11-07T20:46:36.890Z,26.50
2022-11-07T20:49:07.232Z,25.42
2022-11-07T20:51:35.154Z,21.35
2022-11-07T20:54:03.186Z,21.10
2022-11-07T20:56:30.785Z,25.30
2022-11-07T20:58:59.109Z,20.60
2022-11-07T21:01:37.313Z,21.40
2022-11-07T21:04:10.629Z,15.85
2022-11-07T21:07:29.347Z,14.25
2022-11-07T21:10:18.884Z,18.15
2022-11-07T21:13:07.848Z,17.20
2022-11-07T21:16:20.932Z,21.15
2022-11-07T21:19:56.330Z,20.63
2022-11-07T21:22:28.955Z,18.58
2022-11-07T21:25:28.069Z,20.38
2022-11-07T21:30:31.038Z,22.23
2022-11-07T21:33:05.047Z,19.20
2022-11-07T21:35:33.693Z,19.55
2022-11-07T21:38:03.905Z,27.50
2022-11-07T21:40:31.318Z,26.83
2022-11-07T21:42:59.083Z,23.45
2022-11-07T21:45:26.714Z,21.60
2022-11-07T21:47:55.656Z,29.20
2022-11-07T21:50:43.775Z,23.05
2022-11-07T21:53:13.791Z,25.15
2022-11-07T21:55:42.836Z,24.58
2022-11-07T21:58:13.886Z,27.20
2022-11-07T22:00:41.614Z,29.52
2022-11-07T22:03:09.414Z,30.33
2022-11-07T22:05:39.214Z,33.67
2022-11-07T22:08:07.022Z,29.13
2022-11-07T22:10:34.481Z,28.05
2022-11-07T22:13:02.286Z,27.58
2022-11-07T22:15:29.730Z,27.17
2022-11-07T22:17:59.902Z,23.52
2022-11-07T22:20:27.424Z,24.95
2022-11-07T22:22:55.200Z,25.70
2022-11-07T22:25:40.923Z,22.48
2022-11-07T22:28:20.032Z,18.75
2022-11-07T22:30:50.383Z,15.70
2022-11-07T22:33:18.729Z,19.55
2022-11-07T22:35:46.637Z,21.70
2022-11-07T22:38:14.446Z,23.02
2022-11-07T22:40:46.062Z,20.00
2022-11-07T22:43:14.607Z,22.27
2022-11-07T22:45:42.573Z,22.40
2022-11-07T22:48:10.494Z,20.00
2022-11-07T22:50:38.072Z,19.25
2022-11-07T22:53:06.328Z,17.60
2022-11-07T22:55:38.702Z,17.95
2022-11-07T22:58:06.962Z,18.88
2022-11-07T23:00:34.619Z,20.48
2022-11-07T23:03:03.082Z,22.48
2022-11-07T23:06:10.913Z,20.70
2022-11-07T23:08:50.305Z,16.88
2022-11-07T23:11:45.778Z,12.02
2022-11-07T23:14:27.044Z,12.95
2022-11-07T23:16:59.022Z,11.25
2022-11-07T23:19:33.698Z,12.18
2022-11-07T23:22:08.516Z,11.43
2022-11-07T23:24:51.619Z,11.30
2022-11-07T23:27:32.440Z,13.97
2022-11-07T23:30:12.087Z,11.43
2022-11-07T23:32:45.953Z,13.98
2022-11-07T23:35:15.827Z,13.68
2022-11-07T23:37:43.265Z,13.02
2022-11-07T23:40:12.039Z,16.02
2022-11-07T23:42:39.511Z,14.45
2022-11-07T23:45:26.188Z,20.33
2022-11-07T23:48:12.013Z,14.75
2022-11-07T23:50:58.710Z,16.75
2022-11-07T23:53:44.944Z,19.00
2022-11-07T23:56:12.893Z,27.90
2022-11-07T23:58:59.159Z,23.25
